createdAt,value
2023-05-04T00:01:33.636Z,99125.59
2023-05-04T00:04:02.125Z,99115.66
2023-05-04T00:06:30.817Z,99115.84
2023-05-04T00:08:59.190Z,99114.00
2023-05-04T00:11:28.602Z,99120.22
2023-05-04T00:13:57.002Z,99122.91
2023-05-04T00:16:25.425Z,99114.00
2023-05-04T00:18:55.226Z,99109.44
2023-05-04T00:21:23.681Z,99114.81
2023-05-04T00:23:52.217Z,99109.59
2023-05-04T00:26:21.190Z,99112.28
2023-05-04T00:28:49.542Z,99107.78
2023-05-04T00:31:19.237Z,99108.59
2023-05-04T00:33:48.001Z,99111.44
2023-05-04T00:36:17.920Z,99111.44
2023-05-04T00:38:50.432Z,99106.91
2023-05-04T00:41:19.097Z,99111.44
2023-05-04T00:43:47.676Z,99100.69
2023-05-04T00:46:16.128Z,99096.13
2023-05-04T00:48:45.024Z,99094.47
2023-05-04T00:51:13.357Z,99093.63
2023-05-04T00:53:43.234Z,99091.78
2023-05-04T00:56:11.787Z,99097.16
2023-05-04T00:58:40.186Z,99092.78
2023-05-04T01:01:08.763Z,99091.94
2023-05-04T01:03:37.176Z,99090.09
2023-05-04T01:06:18.151Z,99087.41
2023-05-04T01:08:55.096Z,99091.09
2023-05-04T01:11:29.017Z,99087.41
2023-05-04T01:13:57.398Z,99091.94
2023-05-04T01:16:25.850Z,99092.78
2023-05-04T01:18:54.413Z,99090.09
2023-05-04T01:21:22.726Z,99091.09
2023-05-04T01:23:52.625Z,99085.72
2023-05-04T01:26:25.116Z,99081.16
2023-05-04T01:28:58.403Z,99079.50
2023-05-04T01:31:27.484Z,99085.72
2023-05-04T01:33:56.177Z,99074.94
2023-05-04T01:36:24.869Z,99077.81
2023-05-04T01:38:56.694Z,99079.50
2023-05-04T01:41:25.325Z,99067.91
2023-05-04T01:43:54.225Z,99071.44
2023-05-04T01:46:22.674Z,99071.44
2023-05-04T01:48:51.238Z,99065.22
2023-05-04T01:51:19.600Z,99073.28
2023-05-04T01:53:48.143Z,99059.84
2023-05-04T01:56:18.196Z,99066.19
2023-05-04T01:58:46.507Z,99052.75
2023-05-04T02:01:15.424Z,99062.66
2023-05-04T02:03:44.732Z,99054.59
2023-05-04T02:06:13.533Z,99059.97
2023-05-04T02:08:42.318Z,99067.22
2023-05-04T02:11:11.511Z,99062.66
2023-05-04T02:13:41.214Z,99060.81
2023-05-04T02:16:09.702Z,99059.97
2023-05-04T02:18:38.248Z,99064.53
2023-05-04T02:21:06.680Z,99057.28
2023-05-04T02:23:35.243Z,99062.66
2023-05-04T02:26:03.655Z,99059.97
2023-05-04T02:28:32.057Z,99063.50
2023-05-04T02:31:01.993Z,99059.16
2023-05-04T02:33:33.168Z,99059.16
2023-05-04T02:36:01.747Z,99062.84
2023-05-04T02:38:30.133Z,99066.53
2023-05-04T02:40:59.166Z,99057.47
2023-05-04T02:43:27.760Z,99069.91
2023-05-04T02:45:56.366Z,99064.69
2023-05-04T02:48:26.523Z,99065.53
2023-05-04T02:50:54.910Z,99066.53
2023-05-04T02:53:23.331Z,99076.28
2023-05-04T02:55:52.128Z,99073.59
2023-05-04T02:58:20.502Z,99073.59
2023-05-04T03:00:49.994Z,99073.59
2023-05-04T03:03:18.476Z,99072.78
2023-05-04T03:05:48.209Z,99061.16
2023-05-04T03:08:16.775Z,99064.69
2023-05-04T03:10:45.174Z,99069.91
2023-05-04T03:13:13.813Z,99074.44
2023-05-04T03:15:42.198Z,99073.59
2023-05-04T03:18:10.564Z,99075.47
2023-05-04T03:20:39.097Z,99061.16
2023-05-04T03:23:08.844Z,99055.75
2023-05-04T03:25:37.419Z,99056.63
2023-05-04T03:28:06.429Z,99053.94
2023-05-04T03:30:35.159Z,99061.16
2023-05-04T03:33:03.806Z,99066.53
2023-05-04T03:35:32.210Z,99065.69
2023-05-04T03:38:00.827Z,99059.47
2023-05-04T03:40:31.241Z,99062.00
2023-05-04T03:42:59.968Z,99060.31
2023-05-04T03:45:28.825Z,99075.59
2023-05-04T03:47:57.292Z,99078.31
2023-05-04T03:50:25.810Z,99071.91
2023-05-04T03:52:54.231Z,99080.84
2023-05-04T03:55:22.758Z,99076.44
2023-05-04T03:57:53.264Z,99073.75
2023-05-04T04:00:21.688Z,99082.66
2023-05-04T04:02:50.621Z,99077.28
2023-05-04T04:05:19.206Z,99079.00
2023-05-04T04:07:47.533Z,99074.44
2023-05-04T04:10:16.124Z,99079.00
2023-05-04T04:12:44.575Z,99076.28
2023-05-04T04:15:14.670Z,99080.66
2023-05-04T04:17:43.030Z,99076.13
2023-05-04T04:20:14.127Z,99075.28
2023-05-04T04:22:42.510Z,99079.66
2023-05-04T04:25:12.279Z,99076.13
2023-05-04T04:27:42.302Z,99084.03
2023-05-04T04:30:14.026Z,99085.72
2023-05-04T04:32:42.621Z,99082.19
2023-05-04T04:35:11.379Z,99091.78
2023-05-04T04:37:40.007Z,99082.88
2023-05-04T04:40:10.703Z,99083.72
2023-05-04T04:42:39.140Z,99080.00
2023-05-04T04:45:10.243Z,99087.25
2023-05-04T04:47:40.262Z,99083.72
2023-05-04T04:50:09.882Z,99081.72
2023-05-04T04:52:38.616Z,99087.09
2023-05-04T04:55:08.785Z,99086.25
2023-05-04T04:57:37.349Z,99083.38
2023-05-04T05:00:09.536Z,99083.38
2023-05-04T05:02:39.631Z,99080.69
2023-05-04T05:05:09.074Z,99075.16
2023-05-04T05:07:37.487Z,99084.06
2023-05-04T05:10:08.763Z,99074.16
2023-05-04T05:12:37.260Z,99081.19
2023-05-04T05:15:07.748Z,99079.38
2023-05-04T05:17:37.782Z,99088.44
2023-05-04T05:20:11.660Z,99088.09
2023-05-04T05:22:40.358Z,99086.09
2023-05-04T05:25:09.648Z,99086.78
2023-05-04T05:27:38.309Z,99082.09
2023-05-04T05:30:08.381Z,99089.47
2023-05-04T05:32:36.995Z,99090.50
2023-05-04T05:35:07.905Z,99094.03
2023-05-04T05:37:36.540Z,99100.56
2023-05-04T05:40:08.271Z,99098.88
2023-05-04T05:42:37.282Z,99083.41
2023-05-04T05:45:08.011Z,99099.75
2023-05-04T05:47:36.967Z,99089.13
2023-05-04T05:50:07.916Z,99092.97
2023-05-04T05:52:36.412Z,99089.47
2023-05-04T05:55:05.384Z,99086.78
2023-05-04T05:57:33.703Z,99089.13
2023-05-04T06:00:02.211Z,99096.34
2023-05-04T06:02:32.281Z,99092.50
2023-05-04T06:05:01.068Z,99102.56
2023-05-04T06:07:30.912Z,99097.19
2023-05-04T06:09:59.405Z,99094.34
2023-05-04T06:12:27.971Z,99102.25
2023-05-04T06:14:56.401Z,99090.66
2023-05-04T06:17:24.841Z,99091.00
2023-05-04T06:19:53.374Z,99097.41
2023-05-04T06:22:21.771Z,99096.38
2023-05-04T06:24:51.616Z,99093.69
2023-05-04T06:27:20.412Z,99093.53
2023-05-04T06:29:49.792Z,99094.22
2023-05-04T06:32:18.351Z,99094.06
2023-05-04T06:34:46.841Z,99090.53
2023-05-04T06:37:16.138Z,99095.28
2023-05-04T06:39:44.669Z,99089.06
2023-05-04T06:42:14.527Z,99089.50
2023-05-04T06:44:42.965Z,99085.16
2023-05-04T06:47:12.367Z,99077.06
2023-05-04T06:49:40.960Z,99091.03
2023-05-04T06:52:09.783Z,99084.81
2023-05-04T06:54:40.413Z,99097.28
2023-05-04T06:57:08.968Z,99089.22
2023-05-04T06:59:38.788Z,99090.19
2023-05-04T07:02:07.538Z,99092.75
2023-05-04T07:04:36.036Z,99084.66
2023-05-04T07:07:04.802Z,99089.91
2023-05-04T07:09:33.280Z,99080.81
2023-05-04T07:12:02.008Z,99086.19
2023-05-04T07:14:30.362Z,99084.34
2023-05-04T07:17:01.327Z,99089.56
2023-05-04T07:19:29.782Z,99080.66
2023-05-04T07:21:58.265Z,99089.41
2023-05-04T07:24:30.162Z,99087.56
2023-05-04T07:26:58.552Z,99078.47
2023-05-04T07:29:27.793Z,99091.78
2023-05-04T07:31:56.233Z,99096.31
2023-05-04T07:34:37.827Z,99090.06
2023-05-04T07:37:10.917Z,99087.38
2023-05-04T07:39:39.592Z,99088.25
2023-05-04T07:42:08.586Z,99091.78
2023-05-04T07:44:37.106Z,99088.25
2023-05-04T07:47:05.894Z,99084.53
2023-05-04T07:49:35.623Z,99085.22
2023-05-04T07:52:05.583Z,99078.81
2023-05-04T07:54:34.207Z,99089.59
2023-05-04T07:57:04.549Z,99086.06
2023-05-04T07:59:32.999Z,99078.00
2023-05-04T08:02:03.188Z,99079.66
2023-05-04T08:04:31.717Z,99088.91
2023-05-04T08:07:01.446Z,99084.22
2023-05-04T08:09:32.821Z,99079.50
2023-05-04T08:12:01.347Z,99086.75
2023-05-04T08:14:29.791Z,99073.81
2023-05-04T08:16:58.210Z,99080.34
2023-05-04T08:19:26.653Z,99079.50
2023-05-04T08:21:55.106Z,99079.19
2023-05-04T08:24:24.919Z,99090.97
2023-05-04T08:27:04.158Z,99082.03
2023-05-04T08:29:37.352Z,99088.28
2023-05-04T08:32:07.138Z,99088.28
2023-05-04T08:34:36.579Z,99090.78
2023-05-04T08:37:05.865Z,99089.63
2023-05-04T08:39:35.852Z,99090.78
2023-05-04T08:42:04.204Z,99091.63
2023-05-04T08:44:32.743Z,99091.63
2023-05-04T08:47:01.155Z,99089.63
2023-05-04T08:49:30.770Z,99085.41
2023-05-04T08:51:59.191Z,99091.63
2023-05-04T08:54:27.585Z,99089.94
2023-05-04T08:56:57.497Z,99087.09
2023-05-04T08:59:25.938Z,99087.94
2023-05-04T09:01:57.484Z,99081.88
2023-05-04T09:04:29.314Z,99084.41
2023-05-04T09:06:58.861Z,99083.41
2023-05-04T09:09:29.646Z,99071.59
2023-05-04T09:11:59.835Z,99068.75
2023-05-04T09:14:34.635Z,99080.56
2023-05-04T09:17:03.799Z,99076.16
2023-05-04T09:19:34.823Z,99079.69
2023-05-04T09:22:03.697Z,99077.00
2023-05-04T09:24:32.382Z,99080.56
2023-05-04T09:27:11.675Z,99070.78
2023-05-04T09:29:40.831Z,99073.47
2023-05-04T09:32:13.743Z,99062.69
2023-05-04T09:34:51.690Z,99068.09
2023-05-04T09:37:21.313Z,99067.25
2023-05-04T09:39:56.949Z,99067.09
2023-05-04T09:42:27.160Z,99065.38
2023-05-04T09:45:03.357Z,99062.69
2023-05-04T09:47:36.919Z,99063.53
2023-05-04T09:50:19.902Z,99062.69
2023-05-04T09:52:49.645Z,99055.63
2023-05-04T09:55:19.255Z,99053.78
2023-05-04T09:57:51.086Z,99059.03
2023-05-04T10:00:20.631Z,99058.16
2023-05-04T10:02:49.352Z,99050.06
2023-05-04T10:05:21.528Z,99048.41
2023-05-04T10:07:50.010Z,99039.50
2023-05-04T10:10:18.584Z,99043.84
2023-05-04T10:12:48.453Z,99052.75
2023-05-04T10:15:17.408Z,99043.84
2023-05-04T10:17:57.331Z,99033.94
2023-05-04T10:20:39.811Z,99016.44
2023-05-04T10:23:33.041Z,99017.63
2023-05-04T10:26:25.292Z,99021.63
2023-05-04T10:29:02.247Z,99015.25
2023-05-04T10:31:40.387Z,99006.34
2023-05-04T10:34:08.763Z,99002.78
2023-05-04T10:36:38.159Z,99014.91
2023-05-04T10:39:07.696Z,99009.06
2023-05-04T10:41:36.048Z,98995.41
2023-05-04T10:44:06.819Z,99002.50
2023-05-04T10:46:35.202Z,99000.44
2023-05-04T10:49:03.780Z,99000.09
2023-05-04T10:51:42.285Z,98997.41
2023-05-04T10:54:19.868Z,98991.03
2023-05-04T10:56:48.256Z,98997.41
2023-05-04T10:59:18.056Z,98999.81
2023-05-04T11:01:46.603Z,98993.56
2023-05-04T11:04:24.055Z,98988.34
2023-05-04T11:07:02.259Z,98984.81
2023-05-04T11:09:37.949Z,98986.66
2023-05-04T11:12:07.013Z,98979.59
2023-05-04T11:14:39.046Z,98980.28
2023-05-04T11:17:20.214Z,98978.91
2023-05-04T11:19:55.618Z,98971.84
2023-05-04T11:22:24.289Z,98976.22
2023-05-04T11:24:54.222Z,98978.91
2023-05-04T11:27:25.565Z,98967.47
2023-05-04T11:30:00.013Z,98967.47
2023-05-04T11:32:36.152Z,98966.41
2023-05-04T11:35:10.471Z,98958.53
2023-05-04T11:37:42.508Z,98969.19
2023-05-04T11:40:16.552Z,98960.69
2023-05-04T11:42:45.175Z,98961.69
2023-05-04T11:45:18.264Z,98957.66
2023-05-04T11:47:48.551Z,98946.91
2023-05-04T11:50:17.931Z,98940.16
2023-05-04T11:52:46.506Z,98944.69
2023-05-04T11:55:28.880Z,98943.34
2023-05-04T11:58:00.242Z,98950.25
2023-05-04T12:00:40.796Z,98938.16
2023-05-04T12:03:10.429Z,98944.06
2023-05-04T12:05:38.886Z,98944.22
2023-05-04T12:08:08.869Z,98937.16
2023-05-04T12:10:37.445Z,98938.00
2023-05-04T12:13:15.860Z,98937.81
2023-05-04T12:15:45.903Z,98933.59
2023-05-04T12:18:23.006Z,98929.06
2023-05-04T12:20:51.570Z,98931.25
2023-05-04T12:23:19.990Z,98913.53
2023-05-04T12:25:57.814Z,98913.53
2023-05-04T12:28:27.913Z,98923.16
2023-05-04T12:30:59.754Z,98919.13
2023-05-04T12:33:28.406Z,98916.25
2023-05-04T12:36:00.141Z,98903.06
2023-05-04T12:38:30.620Z,98911.53
2023-05-04T12:41:00.833Z,98924.00
2023-05-04T12:43:29.481Z,98912.94
2023-05-04T12:45:59.296Z,98913.25
2023-05-04T12:48:29.158Z,98903.00
2023-05-04T12:50:57.906Z,98912.94
2023-05-04T12:53:29.897Z,98903.50
2023-05-04T12:55:58.600Z,98912.25
2023-05-04T12:58:27.595Z,98903.00
2023-05-04T13:00:56.367Z,98903.50
2023-05-04T13:03:26.294Z,98901.84
2023-05-04T13:05:54.755Z,98894.06
2023-05-04T13:08:23.813Z,98905.19
2023-05-04T13:10:52.580Z,98890.75
2023-05-04T13:13:24.578Z,98891.41
2023-05-04T13:15:53.138Z,98887.00
2023-05-04T13:18:24.160Z,98880.78
2023-05-04T13:20:54.942Z,98890.53
2023-05-04T13:23:23.336Z,98875.84
2023-05-04T13:25:52.144Z,98869.69
2023-05-04T13:28:20.613Z,98864.34
2023-05-04T13:30:49.033Z,98868.53
2023-05-04T13:33:28.695Z,98851.34
2023-05-04T13:36:01.939Z,98855.91
2023-05-04T13:38:30.420Z,98854.41
2023-05-04T13:40:58.987Z,98844.50
2023-05-04T13:43:27.483Z,98847.03
2023-05-04T13:45:57.151Z,98846.19
2023-05-04T13:48:26.862Z,98853.25
2023-05-04T13:50:55.664Z,98853.25
2023-05-04T13:53:25.923Z,98844.00
2023-05-04T13:55:54.364Z,98841.63
2023-05-04T13:58:22.921Z,98841.31
2023-05-04T14:00:51.520Z,98835.94
2023-05-04T14:03:19.987Z,98831.19
2023-05-04T14:05:48.370Z,98825.00
2023-05-04T14:08:16.982Z,98835.09
2023-05-04T14:10:46.689Z,98830.19
2023-05-04T14:13:15.300Z,98828.69
2023-05-04T14:15:43.731Z,98836.94
2023-05-04T14:18:12.289Z,98825.84
2023-05-04T14:20:40.685Z,98822.13
2023-05-04T14:23:09.338Z,98821.50
2023-05-04T14:25:37.728Z,98820.81
2023-05-04T14:28:07.870Z,98819.28
2023-05-04T14:30:36.712Z,98816.94
2023-05-04T14:33:05.362Z,98820.88
2023-05-04T14:35:36.153Z,98818.66
2023-05-04T14:38:04.583Z,98816.06
2023-05-04T14:40:33.004Z,98816.59
2023-05-04T14:43:01.757Z,98814.06
2023-05-04T14:45:31.672Z,98812.22
2023-05-04T14:48:00.190Z,98805.34
2023-05-04T14:50:28.926Z,98798.94
2023-05-04T14:52:57.499Z,98796.06
2023-05-04T14:55:26.276Z,98804.66
2023-05-04T14:57:54.637Z,98807.69
2023-05-04T15:00:23.554Z,98797.94
2023-05-04T15:02:53.535Z,98797.78
2023-05-04T15:05:22.024Z,98803.31
2023-05-04T15:07:50.575Z,98801.63
2023-05-04T15:10:19.062Z,98801.28
2023-05-04T15:12:47.453Z,98807.50
2023-05-04T15:15:16.725Z,98800.97
2023-05-04T15:17:45.159Z,98793.91
2023-05-04T15:20:15.611Z,98791.91
2023-05-04T15:22:44.331Z,98789.03
2023-05-04T15:25:12.987Z,98783.81
2023-05-04T15:27:41.642Z,98774.88
2023-05-04T15:30:11.542Z,98787.50
2023-05-04T15:32:40.254Z,98792.72
2023-05-04T15:35:09.313Z,98791.03
2023-05-04T15:37:39.276Z,98793.91
2023-05-04T15:40:10.054Z,98780.28
2023-05-04T15:42:38.760Z,98774.38
2023-05-04T15:45:09.861Z,98771.69
2023-05-04T15:47:38.970Z,98767.16
2023-05-04T15:50:08.708Z,98768.84
2023-05-04T15:52:38.773Z,98769.84
2023-05-04T15:55:23.738Z,98769.19
2023-05-04T15:57:54.006Z,98761.28
2023-05-04T16:00:23.694Z,98763.13
2023-05-04T16:02:52.403Z,98763.28
2023-05-04T16:05:21.431Z,98760.78
2023-05-04T16:07:52.214Z,98762.94
2023-05-04T16:10:20.834Z,98767.50
2023-05-04T16:12:49.280Z,98765.16
2023-05-04T16:15:17.763Z,98762.13
2023-05-04T16:17:46.331Z,98771.69
2023-05-04T16:20:14.790Z,98772.53
2023-05-04T16:22:43.421Z,98759.91
2023-05-04T16:25:13.353Z,98757.91
2023-05-04T16:27:41.741Z,98760.59
2023-05-04T16:30:11.527Z,98768.00
2023-05-04T16:32:39.895Z,98772.03
2023-05-04T16:35:09.570Z,98768.53
2023-05-04T16:37:39.394Z,98774.72
2023-05-04T16:40:14.722Z,98765.47
2023-05-04T16:42:43.239Z,98765.47
2023-05-04T16:45:13.580Z,98771.34
2023-05-04T16:47:42.346Z,98754.22
2023-05-04T16:50:11.593Z,98756.91
2023-05-04T16:52:40.363Z,98752.38
2023-05-04T16:55:12.222Z,98771.34
2023-05-04T16:57:42.542Z,98768.00
2023-05-04T17:00:13.572Z,98760.78
2023-05-04T17:02:42.366Z,98770.38
2023-05-04T17:05:11.493Z,98768.16
2023-05-04T17:07:40.218Z,98767.16
2023-05-04T17:10:10.578Z,98775.22
2023-05-04T17:12:39.153Z,98773.06
2023-05-04T17:15:10.730Z,98770.53
2023-05-04T17:17:39.256Z,98773.22
2023-05-04T17:20:14.707Z,98773.22
2023-05-04T17:22:44.362Z,98782.97
2023-05-04T17:25:13.246Z,98782.31
2023-05-04T17:27:42.451Z,98781.44
2023-05-04T17:30:14.219Z,98780.63
2023-05-04T17:32:42.723Z,98780.63
2023-05-04T17:35:23.366Z,98779.78
2023-05-04T17:37:56.771Z,98780.47
2023-05-04T17:40:27.598Z,98780.47
2023-05-04T17:42:56.537Z,98789.38
2023-05-04T17:45:26.895Z,98786.81
2023-05-04T17:47:55.584Z,98793.22
2023-05-04T17:50:24.616Z,98786.00
2023-05-04T17:52:54.396Z,98796.75
2023-05-04T17:55:24.432Z,98796.25
2023-05-04T17:57:54.030Z,98803.50
2023-05-04T18:00:22.932Z,98792.88
2023-05-04T18:02:53.088Z,98806.34
2023-05-04T18:05:21.877Z,98794.59
2023-05-04T18:07:50.225Z,98806.19
2023-05-04T18:10:18.620Z,98809.69
2023-05-04T18:12:47.305Z,98813.91
2023-05-04T18:15:17.217Z,98814.94
2023-05-04T18:17:45.824Z,98825.50
2023-05-04T18:20:16.026Z,98813.91
2023-05-04T18:22:44.380Z,98822.81
2023-05-04T18:25:13.679Z,98827.84
2023-05-04T18:27:42.193Z,98827.16
2023-05-04T18:30:11.867Z,98834.06
2023-05-04T18:32:40.456Z,98827.50
2023-05-04T18:35:09.587Z,98831.22
2023-05-04T18:37:39.383Z,98830.53
2023-05-04T18:40:10.028Z,98832.25
2023-05-04T18:42:38.688Z,98835.91
2023-05-04T18:45:10.407Z,98840.81
2023-05-04T18:47:38.780Z,98841.63
2023-05-04T18:50:09.260Z,98838.13
2023-05-04T18:52:39.172Z,98838.59
2023-05-04T18:55:08.503Z,98835.25
2023-05-04T18:57:37.149Z,98841.84
2023-05-04T19:00:07.750Z,98843.50
2023-05-04T19:02:36.598Z,98837.44
2023-05-04T19:05:05.449Z,98846.53
2023-05-04T19:07:33.855Z,98841.63
2023-05-04T19:10:04.601Z,98841.31
2023-05-04T19:12:33.184Z,98837.63
2023-05-04T19:15:01.875Z,98833.56
2023-05-04T19:17:30.352Z,98833.56
2023-05-04T19:19:58.785Z,98832.75
2023-05-04T19:22:27.331Z,98833.56
2023-05-04T19:24:56.417Z,98838.13
2023-05-04T19:27:26.411Z,98838.94
2023-05-04T19:29:56.339Z,98831.91
2023-05-04T19:32:25.287Z,98829.03
2023-05-04T19:34:54.054Z,98829.22
2023-05-04T19:37:22.513Z,98832.56
2023-05-04T19:39:50.964Z,98825.50
2023-05-04T19:42:19.594Z,98830.03
2023-05-04T19:44:49.547Z,98825.69
2023-05-04T19:47:18.215Z,98829.22
2023-05-04T19:49:47.867Z,98819.44
2023-05-04T19:52:16.415Z,98819.44
2023-05-04T19:54:48.610Z,98811.38
2023-05-04T19:57:17.114Z,98814.94
2023-05-04T19:59:47.105Z,98812.25
2023-05-04T20:02:17.373Z,98804.16
2023-05-04T20:04:45.997Z,98808.69
2023-05-04T20:07:14.502Z,98806.84
2023-05-04T20:09:42.934Z,98810.53
2023-05-04T20:12:11.498Z,98813.06
2023-05-04T20:14:41.209Z,98799.78
2023-05-04T20:17:09.839Z,98813.41
2023-05-04T20:19:40.831Z,98807.16
2023-05-04T20:22:09.321Z,98808.88
2023-05-04T20:24:37.751Z,98807.69
2023-05-04T20:27:06.829Z,98803.50
2023-05-04T20:29:35.591Z,98805.66
2023-05-04T20:32:05.554Z,98808.34
2023-05-04T20:34:34.311Z,98809.38
2023-05-04T20:37:04.081Z,98803.31
2023-05-04T20:39:32.698Z,98800.63
2023-05-04T20:42:01.451Z,98807.03
2023-05-04T20:44:30.401Z,98802.47
2023-05-04T20:46:58.909Z,98794.59
2023-05-04T20:49:27.316Z,98796.59
2023-05-04T20:51:55.765Z,98804.00
2023-05-04T20:54:25.911Z,98807.34
2023-05-04T20:56:54.309Z,98801.16
2023-05-04T20:59:25.814Z,98803.66
2023-05-04T21:01:54.344Z,98801.97
2023-05-04T21:04:22.738Z,98793.06
2023-05-04T21:06:51.250Z,98789.53
2023-05-04T21:09:19.694Z,98787.03
2023-05-04T21:11:49.500Z,98779.78
2023-05-04T21:14:18.027Z,98780.81
2023-05-04T21:16:46.369Z,98775.44
2023-05-04T21:19:14.825Z,98778.13
2023-05-04T21:21:43.379Z,98779.09
2023-05-04T21:24:13.381Z,98781.78
2023-05-04T21:26:42.410Z,98785.31
2023-05-04T21:29:15.457Z,98788.34
2023-05-04T21:31:43.861Z,98776.59
2023-05-04T21:34:12.297Z,98778.44
2023-05-04T21:36:41.826Z,98774.56
2023-05-04T21:39:10.237Z,98771.03
2023-05-04T21:41:39.206Z,98770.03
2023-05-04T21:44:07.644Z,98757.25
2023-05-04T21:46:37.752Z,98758.94
2023-05-04T21:49:06.250Z,98764.31
2023-05-04T21:51:34.924Z,98756.94
2023-05-04T21:54:03.361Z,98761.28
2023-05-04T21:56:31.980Z,98754.91
2023-05-04T21:59:00.391Z,98761.09
2023-05-04T22:01:28.983Z,98757.44
2023-05-04T22:03:58.985Z,98760.13
2023-05-04T22:06:27.375Z,98760.94
2023-05-04T22:08:55.948Z,98766.31
2023-05-04T22:11:24.350Z,98765.31
2023-05-04T22:13:52.986Z,98755.41
2023-05-04T22:16:21.657Z,98757.25
2023-05-04T22:18:50.671Z,98765.16
2023-05-04T22:21:20.522Z,98760.59
2023-05-04T22:23:48.906Z,98768.69
2023-05-04T22:26:18.202Z,98764.13
2023-05-04T22:28:46.688Z,98764.13
2023-05-04T22:31:15.044Z,98756.25
2023-05-04T22:33:43.546Z,98758.09
2023-05-04T22:36:12.645Z,98754.53
2023-05-04T22:38:42.510Z,98757.25
2023-05-04T22:41:11.074Z,98744.81
2023-05-04T22:43:39.556Z,98742.13
2023-05-04T22:46:08.010Z,98756.25
2023-05-04T22:48:36.497Z,98746.31
2023-05-04T22:51:05.078Z,98747.16
2023-05-04T22:53:33.706Z,98747.84
2023-05-04T22:56:03.500Z,98746.81
2023-05-04T22:58:32.312Z,98747.69
2023-05-04T23:01:00.930Z,98745.16
2023-05-04T23:03:29.393Z,98753.88
2023-05-04T23:06:01.034Z,98748.50
2023-05-04T23:08:29.504Z,98744.78
2023-05-04T23:10:58.042Z,98750.19
2023-05-04T23:13:27.874Z,98746.66
2023-05-04T23:15:56.251Z,98747.50
2023-05-04T23:18:24.858Z,98748.31
2023-05-04T23:20:53.431Z,98754.53
2023-05-04T23:23:22.065Z,98751.00
2023-05-04T23:25:50.611Z,98746.47
2023-05-04T23:28:18.954Z,98740.25
2023-05-04T23:30:48.891Z,98739.25
2023-05-04T23:33:17.208Z,98735.69
2023-05-04T23:35:45.786Z,98731.19
2023-05-04T23:38:14.155Z,98739.25
2023-05-04T23:40:42.505Z,98735.69
2023-05-04T23:43:11.011Z,98730.31
2023-05-04T23:45:40.538Z,98734.72
2023-05-04T23:48:10.455Z,98730.31
2023-05-04T23:50:39.103Z,98726.63
2023-05-04T23:53:07.487Z,98735.69
2023-05-04T23:55:36.180Z,98724.09
2023-05-04T23:58:04.890Z,98727.81
